createdAt,value
2018-07-07T00:00:34.754Z,12.8
2018-07-07T00:01:36.788Z,12.8
2018-07-07T00:02:39.106Z,12.7
2018-07-07T00:03:41.431Z,12.8
2018-07-07T00:04:43.459Z,12.8
2018-07-07T00:05:45.476Z,12.8
2018-07-07T00:06:47.511Z,12.7
2018-07-07T00:07:49.551Z,12.6
2018-07-07T00:08:51.585Z,12.6
2018-07-07T00:09:53.624Z,12.8
2018-07-07T00:10:55.973Z,12.6
2018-07-07T00:11:58.010Z,12.7
2018-07-07T00:13:00.063Z,12.7
2018-07-07T00:14:02.365Z,12.7
2018-07-07T00:15:04.716Z,12.6
2018-07-07T00:16:06.749Z,12.6
2018-07-07T00:17:08.780Z,12.5
2018-07-07T00:18:10.820Z,12.5
2018-07-07T00:19:12.850Z,12.5
2018-07-07T00:20:14.896Z,12.4
2018-07-07T00:21:16.927Z,12.4
2018-07-07T00:22:18.952Z,12.3
2018-07-07T00:23:21.001Z,12.3
2018-07-07T00:24:23.026Z,12.1
2018-07-07T00:25:25.064Z,12.2
2018-07-07T00:26:27.102Z,12.2
2018-07-07T00:27:29.138Z,12.1
2018-07-07T00:28:31.169Z,12.2
2018-07-07T00:29:33.202Z,12.1
2018-07-07T00:30:35.527Z,12.1
2018-07-07T00:31:37.569Z,12
2018-07-07T00:32:39.600Z,12.1
2018-07-07T00:33:41.637Z,12.1
2018-07-07T00:34:43.670Z,12.1
2018-07-07T00:35:45.698Z,12.1
2018-07-07T00:36:48.043Z,12.1
2018-07-07T00:37:50.387Z,12
2018-07-07T00:38:52.433Z,12
2018-07-07T00:39:54.467Z,11.9
2018-07-07T00:40:56.484Z,12
2018-07-07T00:41:58.524Z,12
2018-07-07T00:43:00.553Z,12
2018-07-07T00:44:02.587Z,11.8
2018-07-07T00:45:05.006Z,11.9
2018-07-07T00:46:07.021Z,12
2018-07-07T00:47:09.071Z,12.1
2018-07-07T00:48:11.103Z,11.9
2018-07-07T00:49:13.132Z,11.9
2018-07-07T00:50:15.558Z,11.9
2018-07-07T00:51:17.584Z,11.8
2018-07-07T00:52:19.907Z,12
2018-07-07T00:53:21.933Z,11.9
2018-07-07T00:54:24.268Z,11.9
2018-07-07T00:55:26.577Z,11.9
2018-07-07T00:56:28.986Z,12.1
2018-07-07T00:57:31.024Z,12.2
2018-07-07T00:58:33.057Z,12.3
2018-07-07T00:59:35.107Z,12.3
2018-07-07T01:00:37.145Z,12.3
2018-07-07T01:01:39.171Z,12.3
2018-07-07T01:02:41.203Z,12.4
2018-07-07T01:03:43.240Z,12.4
2018-07-07T01:04:45.261Z,12.5
2018-07-07T01:05:47.297Z,12.5
2018-07-07T01:06:49.341Z,12.4
2018-07-07T01:07:51.365Z,12.3
2018-07-07T01:08:53.404Z,12.5
2018-07-07T01:09:55.432Z,12.6
2018-07-07T01:10:58.155Z,12.6
2018-07-07T01:12:00.179Z,12.6
2018-07-07T01:13:02.211Z,12.7
2018-07-07T01:14:04.259Z,12.7
2018-07-07T01:15:06.291Z,12.8
2018-07-07T01:16:08.608Z,12.7
2018-07-07T01:17:10.648Z,12.8
2018-07-07T01:18:12.679Z,12.7
2018-07-07T01:19:14.716Z,12.7
2018-07-07T01:20:17.052Z,12.7
2018-07-07T01:21:19.080Z,12.8
2018-07-07T01:22:21.116Z,12.8
2018-07-07T01:23:23.148Z,12.9
2018-07-07T01:24:25.188Z,12.8
2018-07-07T01:25:27.220Z,12.8
2018-07-07T01:26:29.245Z,12.9
2018-07-07T01:27:31.286Z,12.9
2018-07-07T01:28:33.322Z,12.9
2018-07-07T01:29:35.635Z,12.9
2018-07-07T01:30:37.668Z,12.9
2018-07-07T01:31:39.705Z,12.9
2018-07-07T01:32:41.735Z,12.9
2018-07-07T01:33:43.764Z,12.9
2018-07-07T01:34:45.796Z,12.9
2018-07-07T01:35:47.842Z,12.9
2018-07-07T01:36:49.874Z,13
2018-07-07T01:37:52.338Z,12.9
2018-07-07T01:38:54.372Z,12.9
2018-07-07T01:39:56.397Z,13
2018-07-07T01:40:58.432Z,13
2018-07-07T01:42:00.462Z,12.9
2018-07-07T01:43:02.498Z,12.9
2018-07-07T01:44:04.534Z,13
2018-07-07T01:45:06.568Z,12.9
2018-07-07T01:46:08.612Z,13
2018-07-07T01:47:10.639Z,12.9
2018-07-07T01:48:12.960Z,12.9
2018-07-07T01:49:14.993Z,12.9
2018-07-07T01:50:17.025Z,12.9
2018-07-07T01:51:19.064Z,12.9
2018-07-07T01:52:21.096Z,12.9
2018-07-07T01:53:23.128Z,13
2018-07-07T01:54:25.180Z,12.9
2018-07-07T01:55:27.185Z,12.9
2018-07-07T01:56:29.518Z,12.9
2018-07-07T01:57:31.546Z,12.9
2018-07-07T01:58:33.591Z,12.9
2018-07-07T01:59:35.895Z,12.9
2018-07-07T02:00:38.333Z,12.9
2018-07-07T02:01:40.360Z,12.8
2018-07-07T02:02:42.390Z,12.8
2018-07-07T02:03:44.424Z,12.8
2018-07-07T02:04:46.839Z,12.8
2018-07-07T02:05:48.879Z,12.8
2018-07-07T02:06:50.919Z,12.8
2018-07-07T02:07:53.221Z,12.8
2018-07-07T02:08:55.267Z,12.7
2018-07-07T02:09:57.290Z,12.8
2018-07-07T02:10:59.329Z,12.8
2018-07-07T02:12:01.364Z,12.8
2018-07-07T02:13:03.780Z,12.8
2018-07-07T02:14:06.106Z,12.8
2018-07-07T02:15:08.141Z,12.7
2018-07-07T02:16:10.166Z,12.7
2018-07-07T02:17:12.213Z,12.8
2018-07-07T02:18:14.621Z,12.7
2018-07-07T02:19:16.661Z,12.7
2018-07-07T02:20:18.694Z,12.7
2018-07-07T02:21:21.028Z,12.6
2018-07-07T02:22:23.061Z,12.6
2018-07-07T02:23:25.094Z,12.6
2018-07-07T02:24:27.509Z,12.6
2018-07-07T02:25:29.547Z,12.7
2018-07-07T02:26:31.573Z,12.7
2018-07-07T02:27:33.621Z,12.6
2018-07-07T02:28:35.950Z,12.7
2018-07-07T02:29:37.970Z,12.6
2018-07-07T02:30:40.677Z,12.6
2018-07-07T02:31:42.707Z,12.7
2018-07-07T02:32:44.746Z,12.6
2018-07-07T02:33:47.178Z,12.6
2018-07-07T02:34:49.491Z,12.7
2018-07-07T02:35:51.895Z,12.7
2018-07-07T02:36:53.892Z,12.7
2018-07-07T02:37:55.930Z,12.7
2018-07-07T02:38:57.961Z,12.7
2018-07-07T02:39:59.987Z,12.7
2018-07-07T02:41:03.097Z,12.8
2018-07-07T02:42:05.137Z,12.9
2018-07-07T02:43:07.466Z,12.9
2018-07-07T02:44:09.779Z,12.9
2018-07-07T02:45:11.815Z,12.8
2018-07-07T02:46:14.215Z,12.9
2018-07-07T02:47:16.475Z,12.9
2018-07-07T02:48:18.514Z,12.9
2018-07-07T02:49:20.854Z,12.9
2018-07-07T02:50:22.885Z,12.9
2018-07-07T02:51:25.288Z,12.9
2018-07-07T02:52:27.322Z,12.9
2018-07-07T02:53:29.354Z,12.9
2018-07-07T02:54:31.776Z,12.9
2018-07-07T02:55:33.809Z,12.9
2018-07-07T02:56:36.228Z,12.9
2018-07-07T02:57:38.261Z,12.9
2018-07-07T02:58:40.290Z,12.9
2018-07-07T02:59:42.325Z,12.9
2018-07-07T03:00:44.967Z,12.9
2018-07-07T03:01:47.281Z,12.9
2018-07-07T03:02:49.899Z,12.9
2018-07-07T03:03:51.935Z,12.9
2018-07-07T03:04:54.256Z,12.9
2018-07-07T03:05:56.288Z,12.9
2018-07-07T03:06:58.333Z,12.9
2018-07-07T03:08:00.369Z,12.9
2018-07-07T03:09:02.679Z,12.9
2018-07-07T03:10:05.092Z,12.9
2018-07-07T03:11:07.136Z,12.9
2018-07-07T03:12:09.555Z,12.9
2018-07-07T03:13:11.590Z,12.9
2018-07-07T03:14:13.623Z,12.9
2018-07-07T03:15:15.649Z,12.9
2018-07-07T03:16:18.348Z,12.9
2018-07-07T03:17:20.675Z,12.9
2018-07-07T03:18:23.098Z,12.9
2018-07-07T03:19:25.425Z,12.9
2018-07-07T03:20:27.466Z,12.9
2018-07-07T03:21:29.499Z,12.9
2018-07-07T03:22:31.842Z,12.9
2018-07-07T03:23:33.882Z,12.9
2018-07-07T03:24:35.922Z,13
2018-07-07T03:25:37.964Z,13
2018-07-07T03:26:40.305Z,12.9
2018-07-07T03:27:42.340Z,13
2018-07-07T03:28:44.369Z,13
2018-07-07T03:29:46.687Z,13
2018-07-07T03:30:49.777Z,13.1
2018-07-07T03:31:52.376Z,13.1
2018-07-07T03:32:54.425Z,13
2018-07-07T03:33:56.443Z,13.1
2018-07-07T03:34:58.865Z,13.1
2018-07-07T03:36:01.196Z,13.1
2018-07-07T03:37:03.228Z,13
2018-07-07T03:38:05.565Z,13
2018-07-07T03:39:07.607Z,13.1
2018-07-07T03:40:09.638Z,13.1
2018-07-07T03:41:11.674Z,13.1
2018-07-07T03:42:13.826Z,13.1
2018-07-07T03:43:16.146Z,13.1
2018-07-07T03:44:18.172Z,13.1
2018-07-07T03:45:20.209Z,13.2
2018-07-07T03:46:22.236Z,13.1
2018-07-07T03:47:24.275Z,13.1
2018-07-07T03:48:26.311Z,13.1
2018-07-07T03:49:28.339Z,13.2
2018-07-07T03:50:30.378Z,13.2
2018-07-07T03:51:32.398Z,13.2
2018-07-07T03:52:34.716Z,13.2
2018-07-07T03:53:37.029Z,13.2
2018-07-07T03:54:39.076Z,13.2
2018-07-07T03:55:41.094Z,13.2
2018-07-07T03:56:43.139Z,13.2
2018-07-07T03:57:45.169Z,13.3
2018-07-07T03:58:47.704Z,13.2
2018-07-07T03:59:49.675Z,13.3
2018-07-07T04:00:52.006Z,13.3
2018-07-07T04:01:54.044Z,13.3
2018-07-07T04:02:56.081Z,13.3
2018-07-07T04:03:58.113Z,13.3
2018-07-07T04:05:00.163Z,13.3
2018-07-07T04:06:02.187Z,13.4
2018-07-07T04:07:04.527Z,13.4
2018-07-07T04:08:06.947Z,13.3
2018-07-07T04:09:09.364Z,13.4
2018-07-07T04:10:11.404Z,13.3
2018-07-07T04:11:13.739Z,13.4
2018-07-07T04:12:15.770Z,13.4
2018-07-07T04:13:17.812Z,13.5
2018-07-07T04:14:20.134Z,13.4
2018-07-07T04:15:22.174Z,13.4
2018-07-07T04:16:24.211Z,13.5
2018-07-07T04:17:26.555Z,13.5
2018-07-07T04:18:28.595Z,13.5
2018-07-07T04:19:30.627Z,13.6
2018-07-07T04:20:33.040Z,13.6
2018-07-07T04:21:35.074Z,13.6
2018-07-07T04:22:37.113Z,13.6
2018-07-07T04:23:39.159Z,13.6
2018-07-07T04:24:41.192Z,13.6
2018-07-07T04:25:43.221Z,13.7
2018-07-07T04:26:45.835Z,13.6
2018-07-07T04:27:47.869Z,13.7
2018-07-07T04:28:49.906Z,13.7
2018-07-07T04:29:51.946Z,13.7
2018-07-07T04:30:53.973Z,13.7
2018-07-07T04:31:56.296Z,13.8
2018-07-07T04:32:58.624Z,13.7
2018-07-07T04:34:00.651Z,13.8
2018-07-07T04:35:02.689Z,13.8
2018-07-07T04:36:04.711Z,13.8
2018-07-07T04:37:06.751Z,13.8
2018-07-07T04:38:08.781Z,13.9
2018-07-07T04:39:10.816Z,13.9
2018-07-07T04:40:13.207Z,13.9
2018-07-07T04:41:15.237Z,13.9
2018-07-07T04:42:17.651Z,13.9
2018-07-07T04:43:20.076Z,14
2018-07-07T04:44:22.111Z,14
2018-07-07T04:45:24.144Z,14
2018-07-07T04:46:26.873Z,14
2018-07-07T04:47:29.288Z,14
2018-07-07T04:48:31.327Z,14.1
2018-07-07T04:49:33.364Z,14
2018-07-07T04:50:35.397Z,14.1
2018-07-07T04:51:37.430Z,14.1
2018-07-07T04:52:39.462Z,14.1
2018-07-07T04:53:41.882Z,14.1
2018-07-07T04:54:44.180Z,14.2
2018-07-07T04:55:46.528Z,14.2
2018-07-07T04:56:48.562Z,14.3
2018-07-07T04:57:50.592Z,14.3
2018-07-07T04:58:52.631Z,14.3
2018-07-07T04:59:54.653Z,14.3
2018-07-07T05:00:56.696Z,14.3
2018-07-07T05:01:58.722Z,14.3
2018-07-07T05:03:00.759Z,14.2
2018-07-07T05:04:03.191Z,14.3
2018-07-07T05:05:05.602Z,14.3
2018-07-07T05:06:07.645Z,14.3
2018-07-07T05:07:09.681Z,14.4
2018-07-07T05:08:11.716Z,14.4
2018-07-07T05:09:13.753Z,14.3
2018-07-07T05:10:15.783Z,14.3
2018-07-07T05:11:17.817Z,14.3
2018-07-07T05:12:19.856Z,14.4
2018-07-07T05:13:21.892Z,14.5
2018-07-07T05:14:23.938Z,14.5
2018-07-07T05:15:26.360Z,14.5
2018-07-07T05:16:28.584Z,14.5
2018-07-07T05:17:30.619Z,14.5
2018-07-07T05:18:32.657Z,14.6
2018-07-07T05:19:34.696Z,14.6
2018-07-07T05:20:37.037Z,14.6
2018-07-07T05:21:39.067Z,14.6
2018-07-07T05:22:41.097Z,14.6
2018-07-07T05:23:43.125Z,14.6
2018-07-07T05:24:45.832Z,14.6
2018-07-07T05:25:47.868Z,14.5
2018-07-07T05:26:50.358Z,14.5
2018-07-07T05:27:52.370Z,14.5
2018-07-07T05:28:54.403Z,14.5
2018-07-07T05:29:56.433Z,14.5
2018-07-07T05:30:58.467Z,14.6
2018-07-07T05:32:00.505Z,14.5
2018-07-07T05:33:02.930Z,14.6
2018-07-07T05:34:04.963Z,14.6
2018-07-07T05:35:06.992Z,14.6
2018-07-07T05:36:09.422Z,14.7
2018-07-07T05:37:11.512Z,14.7
2018-07-07T05:38:13.492Z,14.7
2018-07-07T05:39:15.531Z,14.7
2018-07-07T05:40:17.573Z,14.6
2018-07-07T05:41:19.888Z,14.8
2018-07-07T05:42:22.306Z,14.8
2018-07-07T05:43:24.341Z,14.8
2018-07-07T05:44:26.375Z,14.9
2018-07-07T05:45:28.409Z,14.9
2018-07-07T05:46:30.437Z,14.9
2018-07-07T05:47:32.473Z,14.9
2018-07-07T05:48:34.514Z,14.9
2018-07-07T05:49:36.829Z,14.9
2018-07-07T05:50:38.872Z,14.9
2018-07-07T05:51:40.904Z,14.9
2018-07-07T05:52:42.936Z,14.9
2018-07-07T05:53:44.984Z,14.9
2018-07-07T05:54:47.005Z,15
2018-07-07T05:55:49.055Z,15
2018-07-07T05:56:51.090Z,15.1
2018-07-07T05:57:53.134Z,15.1
2018-07-07T05:58:55.173Z,15.2
2018-07-07T05:59:57.204Z,15.1
2018-07-07T06:00:59.246Z,15.1
2018-07-07T06:02:01.570Z,15.2
2018-07-07T06:03:03.589Z,15.2
2018-07-07T06:04:05.636Z,15.2
2018-07-07T06:05:07.675Z,15.3
2018-07-07T06:06:09.706Z,15.3
2018-07-07T06:07:11.752Z,15.4
2018-07-07T06:08:13.778Z,15.4
2018-07-07T06:09:16.104Z,15.4
2018-07-07T06:10:18.125Z,15.4
2018-07-07T06:11:20.160Z,15.5
2018-07-07T06:12:22.589Z,15.5
2018-07-07T06:13:24.620Z,15.5
2018-07-07T06:14:27.985Z,15.6
2018-07-07T06:15:29.969Z,15.6
2018-07-07T06:16:32.000Z,15.7
2018-07-07T06:17:34.427Z,15.7
2018-07-07T06:18:36.460Z,15.8
2018-07-07T06:19:38.510Z,15.8
2018-07-07T06:20:40.540Z,15.8
2018-07-07T06:21:42.855Z,15.8
2018-07-07T06:22:44.901Z,15.9
2018-07-07T06:23:46.934Z,15.9
2018-07-07T06:24:48.977Z,15.9
2018-07-07T06:25:51.020Z,16
2018-07-07T06:26:53.459Z,15.9
2018-07-07T06:27:55.474Z,16
2018-07-07T06:28:57.515Z,16
2018-07-07T06:29:59.549Z,15.9
2018-07-07T06:31:01.587Z,15.9
2018-07-07T06:32:03.920Z,16
2018-07-07T06:33:05.957Z,16
2018-07-07T06:34:08.283Z,15.9
2018-07-07T06:35:10.709Z,15.9
2018-07-07T06:36:12.765Z,16
2018-07-07T06:37:15.879Z,15.9
2018-07-07T06:38:17.865Z,16
2018-07-07T06:39:20.285Z,16.1
2018-07-07T06:40:22.322Z,16.1
2018-07-07T06:41:24.353Z,16.2
2018-07-07T06:42:26.386Z,16.2
2018-07-07T06:43:28.427Z,16.2
2018-07-07T06:44:30.748Z,16.3
2018-07-07T06:45:32.789Z,16.4
2018-07-07T06:46:34.828Z,16.4
2018-07-07T06:47:36.859Z,16.4
2018-07-07T06:48:38.895Z,16.5
2018-07-07T06:49:40.935Z,16.6
2018-07-07T06:50:42.957Z,16.5
2018-07-07T06:51:45.303Z,16.5
2018-07-07T06:52:47.342Z,16.6
2018-07-07T06:53:49.484Z,16.6
2018-07-07T06:54:51.409Z,16.6
2018-07-07T06:55:53.445Z,16.8
2018-07-07T06:56:55.488Z,16.9
2018-07-07T06:57:57.521Z,16.9
2018-07-07T06:58:59.566Z,16.8
2018-07-07T07:00:02.652Z,16.9
2018-07-07T07:01:05.102Z,16.8
2018-07-07T07:02:07.155Z,16.8
2018-07-07T07:03:09.196Z,16.8
2018-07-07T07:04:11.234Z,16.9
2018-07-07T07:05:13.554Z,16.9
2018-07-07T07:06:15.593Z,16.9
2018-07-07T07:07:17.650Z,17
2018-07-07T07:08:19.688Z,17
2018-07-07T07:09:21.721Z,17.1
2018-07-07T07:10:23.774Z,17
2018-07-07T07:11:25.801Z,17
2018-07-07T07:12:28.464Z,16.9
2018-07-07T07:13:30.884Z,17
2018-07-07T07:14:32.927Z,17.2
2018-07-07T07:15:35.273Z,17
2018-07-07T07:16:37.317Z,17.2
2018-07-07T07:17:39.616Z,17.4
2018-07-07T07:18:41.827Z,17.4
2018-07-07T07:19:44.142Z,17.4
2018-07-07T07:20:46.474Z,17.4
2018-07-07T07:21:48.519Z,17.5
2018-07-07T07:22:50.561Z,17.6
2018-07-07T07:23:52.875Z,17.6
2018-07-07T07:24:55.303Z,17.5
2018-07-07T07:25:57.740Z,17.7
2018-07-07T07:27:00.424Z,17.6
2018-07-07T07:28:02.473Z,17.8
2018-07-07T07:29:04.512Z,17.8
2018-07-07T07:30:06.552Z,17.8
2018-07-07T07:31:08.580Z,17.8
2018-07-07T07:32:10.631Z,17.8
2018-07-07T07:33:12.687Z,17.9
2018-07-07T07:34:15.016Z,17.8
2018-07-07T07:35:17.051Z,18
2018-07-07T07:36:19.093Z,17.8
2018-07-07T07:37:21.132Z,17.9
2018-07-07T07:38:23.169Z,17.9
2018-07-07T07:39:25.605Z,18.1
2018-07-07T07:40:27.935Z,18.1
2018-07-07T07:41:29.973Z,18
2018-07-07T07:42:32.027Z,18.1
2018-07-07T07:43:34.744Z,18.2
2018-07-07T07:44:36.776Z,18.3
2018-07-07T07:45:38.819Z,18.3
2018-07-07T07:46:40.865Z,18.1
2018-07-07T07:47:42.904Z,18.2
2018-07-07T07:48:44.937Z,18.3
2018-07-07T07:49:46.987Z,18.3
2018-07-07T07:50:49.693Z,18.3
2018-07-07T07:51:51.729Z,18.3
2018-07-07T07:52:54.285Z,18.3
2018-07-07T07:53:56.332Z,18.4
2018-07-07T07:54:58.381Z,18.4
2018-07-07T07:56:00.721Z,18.3
2018-07-07T07:57:02.766Z,18.3
2018-07-07T07:58:04.808Z,18.3
2018-07-07T07:59:08.283Z,18.4
2018-07-07T08:00:10.326Z,18.4
2018-07-07T08:01:12.364Z,18.5
2018-07-07T08:02:14.791Z,18.6
2018-07-07T08:03:16.832Z,18.7
2018-07-07T08:04:18.867Z,18.6
2018-07-07T08:05:20.922Z,18.8
2018-07-07T08:06:22.959Z,18.7
2018-07-07T08:07:24.993Z,18.7
2018-07-07T08:08:27.035Z,18.9
2018-07-07T08:09:29.358Z,18.9
2018-07-07T08:10:31.408Z,19
2018-07-07T08:11:33.732Z,19.1
2018-07-07T08:12:35.775Z,19.2
2018-07-07T08:13:37.833Z,19.3
2018-07-07T08:14:39.868Z,19.1
2018-07-07T08:15:41.908Z,19.2
2018-07-07T08:16:43.957Z,19
2018-07-07T08:17:45.995Z,19
2018-07-07T08:18:48.040Z,19.1
2018-07-07T08:19:50.396Z,19.3
2018-07-07T08:20:52.449Z,19.3
2018-07-07T08:21:54.496Z,19.3
2018-07-07T08:22:57.512Z,19.4
2018-07-07T08:23:59.529Z,19.4
2018-07-07T08:25:01.556Z,19.5
2018-07-07T08:26:03.604Z,19.4
2018-07-07T08:27:05.928Z,19.4
2018-07-07T08:28:08.347Z,19.5
2018-07-07T08:29:10.399Z,19.4
2018-07-07T08:30:12.438Z,19.4
2018-07-07T08:31:14.478Z,19.4
2018-07-07T08:32:16.510Z,19.6
2018-07-07T08:33:18.819Z,19.6
2018-07-07T08:34:20.865Z,19.7
2018-07-07T08:35:22.903Z,19.7
2018-07-07T08:36:25.882Z,19.5
2018-07-07T08:37:27.899Z,19.9
2018-07-07T08:38:29.950Z,19.7
2018-07-07T08:39:32.269Z,19.7
2018-07-07T08:40:34.702Z,19.7
2018-07-07T08:41:36.743Z,19.6
2018-07-07T08:42:38.789Z,19.6
2018-07-07T08:43:40.824Z,19.9
2018-07-07T08:44:42.860Z,19.9
2018-07-07T08:45:45.206Z,19.9
2018-07-07T08:46:47.539Z,20.2
2018-07-07T08:47:49.581Z,20.1
2018-07-07T08:48:51.752Z,20.3
2018-07-07T08:49:53.799Z,20.5
2018-07-07T08:50:55.852Z,20.5
2018-07-07T08:51:57.888Z,20.7
2018-07-07T08:53:06.136Z,20.5
2018-07-07T08:54:12.092Z,20.7
2018-07-07T08:55:18.437Z,21
2018-07-07T08:56:22.653Z,21
2018-07-07T08:57:25.925Z,21.2
2018-07-07T08:58:28.100Z,21
2018-07-07T08:59:30.150Z,21.1
2018-07-07T09:00:32.199Z,21.1
2018-07-07T09:01:34.254Z,21.1
2018-07-07T09:02:36.297Z,21.2
2018-07-07T09:03:38.342Z,21.3
2018-07-07T09:04:40.377Z,21.2
2018-07-07T09:05:42.756Z,21.4
2018-07-07T09:06:44.800Z,21.4
2018-07-07T09:07:46.996Z,21.5
2018-07-07T09:08:48.893Z,21.4
2018-07-07T09:09:51.220Z,21.1
2018-07-07T09:10:53.269Z,21.1
2018-07-07T09:11:55.323Z,21.4
2018-07-07T09:12:57.360Z,21.6
2018-07-07T09:13:59.419Z,21.5
2018-07-07T09:15:01.465Z,21.5
2018-07-07T09:16:03.790Z,21.6
2018-07-07T09:17:05.840Z,21.9
2018-07-07T09:18:07.889Z,21.8
2018-07-07T09:19:09.941Z,21.8
2018-07-07T09:20:12.950Z,21.8
2018-07-07T09:21:15.129Z,21.5
2018-07-07T09:22:17.525Z,21.5
2018-07-07T09:23:19.574Z,21.5
2018-07-07T09:24:21.617Z,21.7
2018-07-07T09:25:24.239Z,22
2018-07-07T09:26:26.625Z,22.3
2018-07-07T09:27:30.381Z,22.1
2018-07-07T09:28:32.400Z,22.1
2018-07-07T09:29:35.055Z,22.2
2018-07-07T09:30:37.384Z,22.4
2018-07-07T09:31:39.737Z,22.6
2018-07-07T09:32:41.783Z,22.8
2018-07-07T09:33:43.819Z,22.8
2018-07-07T09:34:46.144Z,22.9
2018-07-07T09:35:48.193Z,22.6
2018-07-07T09:36:50.247Z,22.8
2018-07-07T09:37:53.708Z,23
2018-07-07T09:38:55.762Z,22.6
2018-07-07T09:39:57.808Z,22.9
2018-07-07T09:40:59.859Z,22.9
2018-07-07T09:42:01.903Z,22.9
2018-07-07T09:43:03.949Z,22.9
2018-07-07T09:44:06.005Z,22.7
2018-07-07T09:45:08.030Z,23.1
2018-07-07T09:46:10.086Z,22.9
2018-07-07T09:47:12.137Z,22.6
2018-07-07T09:48:14.568Z,22.7
2018-07-07T09:49:16.618Z,22.4
2018-07-07T09:50:18.659Z,22.4
2018-07-07T09:51:20.994Z,22.4
2018-07-07T09:52:23.037Z,22.6
2018-07-07T09:53:25.088Z,22.8
2018-07-07T09:54:27.517Z,22.7
2018-07-07T09:55:29.847Z,22.7
2018-07-07T09:56:31.892Z,22.4
2018-07-07T09:57:33.950Z,22.4
2018-07-07T09:58:36.004Z,22.9
2018-07-07T09:59:38.045Z,23.1
2018-07-07T10:00:40.101Z,23.4
2018-07-07T10:01:42.831Z,23.7
2018-07-07T10:02:45.262Z,23.9
2018-07-07T10:03:47.320Z,23.9
2018-07-07T10:04:49.368Z,24.2
2018-07-07T10:05:51.418Z,24
2018-07-07T10:06:53.788Z,23.5
2018-07-07T10:07:55.832Z,23.8
2018-07-07T10:08:57.886Z,23.5
2018-07-07T10:09:59.939Z,23.9
2018-07-07T10:11:02.276Z,23.4
2018-07-07T10:12:04.330Z,23.3
2018-07-07T10:13:06.759Z,24
2018-07-07T10:14:09.785Z,23.8
2018-07-07T10:15:11.831Z,23.8
2018-07-07T10:16:13.882Z,23.7
2018-07-07T10:17:15.922Z,23.6
2018-07-07T10:18:17.977Z,23.9
2018-07-07T10:19:20.720Z,23.9
2018-07-07T10:20:22.759Z,23.9
2018-07-07T10:21:25.094Z,23.9
2018-07-07T10:22:27.319Z,23.6
2018-07-07T10:23:29.386Z,23.6
2018-07-07T10:24:31.435Z,23.8
2018-07-07T10:25:33.869Z,24.1
2018-07-07T10:26:35.936Z,23.9
2018-07-07T10:27:37.982Z,24
2018-07-07T10:28:40.033Z,24.4
2018-07-07T10:29:42.077Z,24.8
2018-07-07T10:30:44.135Z,24.7
2018-07-07T10:31:46.183Z,25.2
2018-07-07T10:32:48.227Z,25.1
2018-07-07T10:33:50.565Z,25
2018-07-07T10:34:52.618Z,24.9
2018-07-07T10:35:54.659Z,24.9
2018-07-07T10:36:56.711Z,24.5
2018-07-07T10:37:59.100Z,24.5
2018-07-07T10:39:01.149Z,24.2
2018-07-07T10:40:03.495Z,24.2
2018-07-07T10:41:05.550Z,24.5
2018-07-07T10:42:07.601Z,24.7
2018-07-07T10:43:09.654Z,24.4
2018-07-07T10:44:11.705Z,24.6
2018-07-07T10:45:13.768Z,24.3
2018-07-07T10:46:15.824Z,24.7
2018-07-07T10:47:17.876Z,24.5
2018-07-07T10:48:19.919Z,24.5
2018-07-07T10:49:21.971Z,24.7
2018-07-07T10:50:24.031Z,24.4
2018-07-07T10:51:26.081Z,24.4
2018-07-07T10:52:28.436Z,24.4
2018-07-07T10:53:30.770Z,24.3
2018-07-07T10:54:32.823Z,23.8
2018-07-07T10:55:35.641Z,23.8
2018-07-07T10:56:37.609Z,23.9
2018-07-07T10:57:39.651Z,24
2018-07-07T10:58:42.093Z,24.6
2018-07-07T10:59:44.095Z,25.1
2018-07-07T11:00:46.153Z,25.1
2018-07-07T11:01:48.212Z,25.3
2018-07-07T11:02:50.264Z,25.6
2018-07-07T11:03:52.609Z,25.8
2018-07-07T11:04:54.648Z,25.6
2018-07-07T11:05:56.706Z,25.6
2018-07-07T11:06:58.759Z,25.5
2018-07-07T11:08:00.804Z,25.6
2018-07-07T11:09:02.870Z,25.6
2018-07-07T11:10:04.921Z,25.5
2018-07-07T11:11:06.955Z,25
2018-07-07T11:12:09.110Z,25.8
2018-07-07T11:13:11.069Z,26.1
2018-07-07T11:14:13.129Z,25.4
2018-07-07T11:15:15.470Z,25.4
2018-07-07T11:16:17.517Z,25.3
2018-07-07T11:17:19.580Z,25.5
2018-07-07T11:18:21.622Z,25.4
2018-07-07T11:19:23.674Z,25.4
2018-07-07T11:20:25.738Z,25
2018-07-07T11:21:27.792Z,25.2
2018-07-07T11:22:29.853Z,25.6
2018-07-07T11:23:31.902Z,25.9
2018-07-07T11:24:33.962Z,25.9
2018-07-07T11:25:36.303Z,25.6
2018-07-07T11:26:38.356Z,25.7
2018-07-07T11:27:40.410Z,25.7
2018-07-07T11:28:42.455Z,25.6
2018-07-07T11:29:44.563Z,25.7
2018-07-07T11:30:46.572Z,25.4
2018-07-07T11:31:48.619Z,25.5
2018-07-07T11:32:50.686Z,25.1
2018-07-07T11:33:53.014Z,25.4
2018-07-07T11:34:55.078Z,25.7
2018-07-07T11:35:57.127Z,26
2018-07-07T11:36:59.181Z,25.8
2018-07-07T11:38:01.241Z,26
2018-07-07T11:39:03.575Z,25.9
2018-07-07T11:40:05.616Z,26
2018-07-07T11:41:08.059Z,26.2
2018-07-07T11:42:10.119Z,25.9
2018-07-07T11:43:12.179Z,26.2
2018-07-07T11:44:14.226Z,26
2018-07-07T11:45:16.279Z,25.9
2018-07-07T11:46:18.333Z,26.4
2018-07-07T11:47:20.389Z,26.4
2018-07-07T11:48:22.438Z,26.2
2018-07-07T11:49:24.889Z,26.3
2018-07-07T11:50:26.964Z,26
2018-07-07T11:51:28.986Z,26.2
2018-07-07T11:52:31.037Z,26
2018-07-07T11:53:33.092Z,26.3
2018-07-07T11:54:35.162Z,26.3
2018-07-07T11:55:37.494Z,26.1
2018-07-07T11:56:39.552Z,25.9
2018-07-07T11:57:41.614Z,26.2
2018-07-07T11:58:43.652Z,26.3
2018-07-07T11:59:45.716Z,25.8
2018-07-07T12:00:47.761Z,25.8
2018-07-07T12:01:50.157Z,26.2
2018-07-07T12:02:52.183Z,25.8
2018-07-07T12:03:54.234Z,25.6
2018-07-07T12:04:56.812Z,26.4
2018-07-07T12:05:58.828Z,26.6
2018-07-07T12:07:01.268Z,26.5
2018-07-07T12:08:13.872Z,26.4
2018-07-07T12:09:05.657Z,26.3
2018-07-07T12:10:07.711Z,26.6
2018-07-07T12:11:10.743Z,26.2
2018-07-07T12:12:13.551Z,26.6
2018-07-07T12:13:16.028Z,26.6
2018-07-07T12:14:18.470Z,26.4
2018-07-07T12:15:20.999Z,26.5
2018-07-07T12:16:23.559Z,26.1
2018-07-07T12:17:26.031Z,26.5
2018-07-07T12:18:28.511Z,26.9
2018-07-07T12:19:31.037Z,26.8
2018-07-07T12:20:33.155Z,26.9
2018-07-07T12:21:39.475Z,26.8
2018-07-07T12:22:43.234Z,26.6
2018-07-07T12:23:51.378Z,26.3
2018-07-07T12:24:56.858Z,26.3
2018-07-07T12:26:00.462Z,25.4
2018-07-07T12:27:02.797Z,25
2018-07-07T12:28:05.611Z,25.6
2018-07-07T12:29:12.390Z,26.1
2018-07-07T12:30:15.700Z,26.2
2018-07-07T12:31:18.281Z,26.5
2018-07-07T12:32:20.786Z,26.9
2018-07-07T12:33:23.136Z,26.9
2018-07-07T12:34:27.428Z,26.6
2018-07-07T12:35:29.626Z,26.7
2018-07-07T12:36:31.682Z,26.7
2018-07-07T12:37:34.046Z,26.9
2018-07-07T12:38:36.101Z,27.2
2018-07-07T12:39:38.443Z,27.1
2018-07-07T12:40:40.553Z,27
2018-07-07T12:41:42.564Z,27.1
2018-07-07T12:42:44.634Z,26.6
2018-07-07T12:43:46.686Z,27
2018-07-07T12:44:49.224Z,26.3
2018-07-07T12:45:51.263Z,26.9
2018-07-07T12:46:53.286Z,26.2
2018-07-07T12:47:55.339Z,26.1
2018-07-07T12:48:57.408Z,26.5
2018-07-07T12:49:59.772Z,26.8
2018-07-07T12:51:01.827Z,26.8
2018-07-07T12:52:04.351Z,26.7
2018-07-07T12:53:06.814Z,27
2018-07-07T12:54:08.862Z,26.9
2018-07-07T12:55:11.209Z,27.3
2018-07-07T12:56:13.255Z,27
2018-07-07T12:57:15.604Z,27
2018-07-07T12:58:17.650Z,26.9
2018-07-07T12:59:19.986Z,27.3
2018-07-07T13:00:22.040Z,26.6
2018-07-07T13:01:24.477Z,26.9
2018-07-07T13:02:26.808Z,26.8
2018-07-07T13:03:29.257Z,27
2018-07-07T13:04:31.312Z,26.3
2018-07-07T13:05:33.373Z,26.4
2018-07-07T13:06:35.429Z,27
2018-07-07T13:07:37.493Z,26.9
2018-07-07T13:08:39.824Z,27.1
2018-07-07T13:09:41.877Z,27.4
2018-07-07T13:10:43.927Z,27.4
2018-07-07T13:11:45.990Z,27.1
2018-07-07T13:12:48.033Z,26.5
2018-07-07T13:13:50.094Z,26.7
2018-07-07T13:14:52.152Z,27.3
2018-07-07T13:15:54.205Z,26.3
2018-07-07T13:16:56.257Z,27
2018-07-07T13:17:58.312Z,27.6
2018-07-07T13:19:00.369Z,27.5
2018-07-07T13:20:03.105Z,27.5
2018-07-07T13:21:05.875Z,27.4
2018-07-07T13:22:08.221Z,27.5
2018-07-07T13:23:10.276Z,27.1
2018-07-07T13:24:12.625Z,27.2
2018-07-07T13:25:14.695Z,26.9
2018-07-07T13:26:17.093Z,26.6
2018-07-07T13:27:19.129Z,26.6
2018-07-07T13:28:21.180Z,27
2018-07-07T13:29:23.254Z,27.5
2018-07-07T13:30:25.293Z,27.6
2018-07-07T13:31:27.377Z,27
2018-07-07T13:32:29.436Z,27.2
2018-07-07T13:33:32.633Z,27.4
2018-07-07T13:34:35.976Z,27.5
2018-07-07T13:35:38.031Z,27.5
2018-07-07T13:36:40.098Z,27.6
2018-07-07T13:37:42.751Z,28.2
2018-07-07T13:38:44.812Z,27
2018-07-07T13:39:47.204Z,27.5
2018-07-07T13:40:49.253Z,27.5
2018-07-07T13:41:51.320Z,27.7
2018-07-07T13:42:53.381Z,27.6
2018-07-07T13:43:55.834Z,27.9
2018-07-07T13:44:57.886Z,27.9
2018-07-07T13:46:00.233Z,28
2018-07-07T13:47:02.527Z,27.8
2018-07-07T13:48:04.558Z,27.2
2018-07-07T13:49:06.565Z,27
2018-07-07T13:50:08.587Z,26.9
2018-07-07T13:51:10.602Z,26.6
2018-07-07T13:52:13.008Z,27.3
2018-07-07T13:53:15.405Z,27.5